Time;durP1;ratioP1;P1;durP2;ratioP2;P2;SDS_P1;SDS_P2;PMS_P1;PMS_P2;Temp;Humidity;BMP_temperature;BMP_pressure;BME280_temperature;BME280_humidity;BME280_pressure;Samples;Min_cycle;Max_cycle;Signal;HPM_P1;HPM_P2
2022/01/06 05:00:37;;;;;;;12.40;3.60;;;3.30;99.70;;;;;;5014155;28;20163;-65
2022/01/06 05:03:04;;;;;;;9.13;3.80;;;3.40;99.70;;;;;;5014081;28;20213;-65
2022/01/06 05:05:30;;;;;;;8.60;3.83;;;3.40;99.70;;;;;;5013916;28;20960;-66
2022/01/06 05:07:57;;;;;;;7.70;4.00;;;3.50;99.70;;;;;;5013495;28;20454;-65
2022/01/06 05:10:24;;;;;;;10.17;4.30;;;3.60;99.70;;;;;;5013999;28;20445;-65
2022/01/06 05:12:50;;;;;;;7.87;4.07;;;3.70;99.70;;;;;;5014037;28;20488;-66
2022/01/06 05:15:17;;;;;;;8.63;4.00;;;3.70;99.70;;;;;;5013708;28;20943;-66
2022/01/06 05:17:45;;;;;;;8.00;4.00;;;3.60;99.70;;;;;;5013696;28;20461;-65
2022/01/06 05:20:13;;;;;;;9.40;4.00;;;3.50;99.70;;;;;;5013679;28;20452;-64
2022/01/06 05:22:44;;;;;;;10.03;4.10;;;3.60;99.70;;;;;;5013617;28;20438;-66
2022/01/06 05:25:12;;;;;;;10.93;3.83;;;3.70;99.70;;;;;;5013619;28;20872;-65
2022/01/06 05:27:39;;;;;;;7.70;3.50;;;3.80;99.70;;;;;;5013531;28;20503;-65
2022/01/06 05:30:08;;;;;;;10.73;3.60;;;3.70;99.70;;;;;;5013379;28;20524;-66
2022/01/06 05:32:34;;;;;;;8.00;3.60;;;3.50;99.70;;;;;;5013772;28;20481;-66
2022/01/06 05:35:03;;;;;;;11.60;4.10;;;3.30;99.70;;;;;;5013379;28;20445;-66
2022/01/06 05:37:30;;;;;;;8.00;3.70;;;3.40;99.70;;;;;;5013528;28;20468;-65
2022/01/06 05:39:57;;;;;;;9.60;3.63;;;3.40;99.70;;;;;;5013070;28;20820;-65
2022/01/06 05:42:23;;;;;;;8.10;3.80;;;3.40;99.70;;;;;;5013316;28;20935;-65
2022/01/06 05:44:50;;;;;;;9.23;4.10;;;3.50;99.70;;;;;;5013319;28;20454;-65
2022/01/06 05:47:17;;;;;;;8.40;3.87;;;3.70;99.70;;;;;;5012834;28;20488;-66
2022/01/06 05:49:44;;;;;;;9.70;4.20;;;3.50;99.70;;;;;;5012737;28;20451;-65
2022/01/06 05:52:12;;;;;;;11.03;4.43;;;3.50;99.70;;;;;;5013303;28;20485;-66
2022/01/06 05:54:39;;;;;;;12.00;5.10;;;3.40;99.70;;;;;;5013046;28;20515;-67
2022/01/06 05:57:06;;;;;;;12.00;5.40;;;3.50;99.70;;;;;;5013012;28;20469;-65
2022/01/06 05:59:33;;;;;;;12.07;5.80;;;3.70;99.70;;;;;;5012761;28;20449;-66
2022/01/06 06:02:00;;;;;;;12.03;5.47;;;3.60;99.70;;;;;;5013070;28;20781;-65
2022/01/06 06:04:28;;;;;;;9.67;4.30;;;3.70;99.70;;;;;;5012875;28;20448;-66
2022/01/06 06:06:54;;;;;;;9.40;4.70;;;3.70;99.70;;;;;;5012982;28;20477;-66
2022/01/06 06:09:23;;;;;;;11.47;5.60;;;3.60;99.70;;;;;;5012413;28;20531;-65
2022/01/06 06:11:49;;;;;;;11.80;5.10;;;3.60;99.70;;;;;;5012778;28;20477;-65
2022/01/06 06:14:16;;;;;;;13.90;6.17;;;3.60;99.70;;;;;;5012682;28;20457;-66
2022/01/06 06:16:43;;;;;;;13.07;6.00;;;3.50;99.70;;;;;;5012650;28;20523;-66
2022/01/06 06:19:10;;;;;;;10.67;4.70;;;3.50;99.70;;;;;;5012206;28;20445;-66
2022/01/06 06:21:36;;;;;;;8.93;4.77;;;3.50;99.70;;;;;;5012632;28;20441;-68
2022/01/06 06:24:05;;;;;;;7.90;3.80;;;3.50;99.70;;;;;;5012579;28;20445;-66
2022/01/06 06:26:33;;;;;;;9.07;4.00;;;3.50;99.70;;;;;;5012415;28;20477;-66
2022/01/06 06:29:00;;;;;;;8.50;4.13;;;3.70;99.70;;;;;;5012110;28;20955;-66
2022/01/06 06:31:27;;;;;;;8.53;3.83;;;3.70;99.70;;;;;;5012031;28;20481;-65
2022/01/06 06:33:53;;;;;;;7.07;3.70;;;3.80;99.70;;;;;;5012397;28;20442;-66
2022/01/06 06:36:20;;;;;;;11.70;4.20;;;3.70;99.70;;;;;;5012424;28;20465;-65
2022/01/06 06:38:47;;;;;;;8.80;4.10;;;3.60;99.70;;;;;;5011953;28;20441;-64
2022/01/06 06:41:13;;;;;;;9.77;4.07;;;3.60;99.70;;;;;;5012453;28;20450;-64
2022/01/06 06:43:41;;;;;;;6.80;3.87;;;3.60;99.70;;;;;;5012416;28;20456;-64
2022/01/06 06:46:08;;;;;;;10.90;4.80;;;3.60;99.70;;;;;;5011888;28;20979;-62
2022/01/06 06:48:35;;;;;;;11.63;4.80;;;3.50;99.70;;;;;;5011848;28;20446;-65
2022/01/06 06:51:02;;;;;;;14.40;4.90;;;3.30;99.70;;;;;;5011939;28;20449;-64
2022/01/06 06:53:29;;;;;;;11.10;4.77;;;3.50;99.70;;;;;;5012175;28;21012;-66
2022/01/06 06:55:56;;;;;;;15.07;4.47;;;3.60;99.70;;;;;;5011857;28;20527;-64
2022/01/06 06:58:23;;;;;;;6.80;3.40;;;3.90;99.70;;;;;;5011620;28;20457;-65
2022/01/06 07:00:51;;;;;;;7.40;3.70;;;4.00;99.70;;;;;;5011954;28;20481;-64
2022/01/06 07:03:18;;;;;;;8.17;3.53;;;3.90;99.70;;;;;;5011900;28;20441;-64
2022/01/06 07:05:45;;;;;;;12.23;3.83;;;3.90;99.70;;;;;;5011548;28;21005;-64
2022/01/06 07:08:11;;;;;;;8.33;3.47;;;4.00;99.70;;;;;;5011507;28;20492;-67
2022/01/06 07:10:38;;;;;;;7.70;3.57;;;4.00;99.70;;;;;;5011805;28;20441;-65
2022/01/06 07:13:05;;;;;;;7.53;3.43;;;4.10;99.70;;;;;;5011775;28;20490;-65
2022/01/06 07:15:33;;;;;;;7.33;3.77;;;4.00;99.70;;;;;;5011911;28;20527;-64
2022/01/06 07:18:01;;;;;;;7.87;3.80;;;3.80;99.70;;;;;;5011357;28;20549;-65
2022/01/06 07:20:28;;;;;;;10.27;3.70;;;3.60;99.70;;;;;;5011613;28;20449;-65
2022/01/06 07:22:54;;;;;;;6.90;3.80;;;3.80;99.70;;;;;;5011716;28;20487;-65
2022/01/06 07:25:22;;;;;;;7.20;3.77;;;3.80;99.70;;;;;;5011380;28;20449;-64
2022/01/06 07:27:49;;;;;;;10.37;3.60;;;3.50;99.70;;;;;;5011337;28;20484;-66
2022/01/06 07:30:15;;;;;;;7.37;3.90;;;3.40;99.70;;;;;;5011457;28;20966;-66
2022/01/06 07:32:43;;;;;;;7.57;3.87;;;3.30;99.70;;;;;;5011411;28;20477;-63
2022/01/06 07:35:12;;;;;;;5.83;3.33;;;3.20;99.70;;;;;;5011502;28;20453;-64
2022/01/06 07:37:38;;;;;;;9.27;3.90;;;3.50;99.70;;;;;;5011446;28;20442;-63
2022/01/06 07:40:07;;;;;;;9.23;3.80;;;3.50;99.70;;;;;;5011268;28;20457;-66
2022/01/06 07:42:34;;;;;;;8.13;3.97;;;3.40;99.70;;;;;;5011590;28;20445;-65
2022/01/06 07:45:01;;;;;;;7.97;3.67;;;3.30;99.70;;;;;;5013862;28;20794;-65
2022/01/06 07:47:29;;;;;;;8.40;3.80;;;3.40;99.70;;;;;;5014796;28;21014;-64
2022/01/06 07:49:55;;;;;;;8.93;4.20;;;3.30;99.70;;;;;;5014985;28;20461;-65
2022/01/06 07:52:23;;;;;;;8.23;4.00;;;3.10;99.70;;;;;;5015400;28;20481;-65
2022/01/06 07:54:50;;;;;;;10.03;4.17;;;3.00;99.70;;;;;;5015389;28;20480;-66
2022/01/06 07:57:17;;;;;;;8.07;3.50;;;2.90;99.70;;;;;;5015271;28;20457;-65
2022/01/06 07:59:44;;;;;;;10.30;3.83;;;3.10;99.70;;;;;;5014909;28;20445;-64
2022/01/06 08:02:10;;;;;;;8.40;4.17;;;3.10;99.70;;;;;;5015159;28;21181;-65
2022/01/06 08:04:37;;;;;;;9.40;4.40;;;3.10;99.70;;;;;;5015181;28;20533;-63
2022/01/06 08:07:05;;;;;;;8.23;4.10;;;3.00;99.70;;;;;;5015091;28;20982;-64
2022/01/06 08:09:33;;;;;;;17.50;4.70;;;2.90;99.70;;;;;;5014860;28;20451;-65
2022/01/06 08:12:00;;;;;;;11.40;4.17;;;2.80;99.70;;;;;;5015149;28;20477;-64
2022/01/06 08:14:27;;;;;;;9.23;4.37;;;2.80;99.70;;;;;;5015085;28;20445;-64
2022/01/06 08:16:53;;;;;;;11.40;4.50;;;2.70;99.70;;;;;;5014698;28;20492;-66
2022/01/06 08:19:20;;;;;;;10.67;4.40;;;2.70;99.70;;;;;;5014587;28;20467;-66
2022/01/06 08:21:47;;;;;;;8.57;4.50;;;3.00;99.70;;;;;;5014838;28;20437;-64
2022/01/06 08:24:14;;;;;;;14.73;4.47;;;2.80;99.70;;;;;;5014856;28;20453;-64
2022/01/06 08:26:42;;;;;;;10.30;4.90;;;2.90;99.70;;;;;;5014558;28;20840;-66
2022/01/06 08:29:08;;;;;;;13.77;5.47;;;2.90;99.70;;;;;;5014342;28;20452;-65
2022/01/06 08:31:35;;;;;;;11.57;4.97;;;2.80;99.70;;;;;;5014498;28;20445;-64
2022/01/06 08:34:02;;;;;;;8.97;4.13;;;2.80;99.70;;;;;;5012234;28;21036;-65
2022/01/06 08:36:28;;;;;;;12.50;4.93;;;3.00;99.70;;;;;;5011952;28;20471;-66
2022/01/06 08:38:55;;;;;;;8.90;4.23;;;3.20;99.70;;;;;;5012827;28;20465;-65
2022/01/06 08:41:22;;;;;;;11.20;4.33;;;3.30;99.70;;;;;;5011472;28;20452;-65
2022/01/06 08:43:50;;;;;;;15.40;5.87;;;3.30;99.70;;;;;;5013121;28;20481;-65
2022/01/06 08:46:16;;;;;;;11.43;4.97;;;3.30;99.70;;;;;;5010502;28;20465;-64
2022/01/06 08:48:43;;;;;;;10.37;4.97;;;3.10;99.70;;;;;;5012444;28;20872;-67
2022/01/06 08:51:10;;;;;;;10.00;4.83;;;3.00;99.70;;;;;;5011788;28;20453;-66
2022/01/06 08:53:37;;;;;;;10.30;4.53;;;3.10;99.70;;;;;;5013725;28;20655;-66
2022/01/06 08:56:04;;;;;;;9.77;4.40;;;3.20;99.70;;;;;;5012889;28;21002;-66
2022/01/06 08:58:30;;;;;;;18.97;5.30;;;3.10;99.70;;;;;;5012096;28;20449;-66
2022/01/06 09:00:58;;;;;;;13.60;4.77;;;3.10;99.70;;;;;;5013507;28;20456;-65
2022/01/06 09:03:25;;;;;;;12.23;4.40;;;3.10;99.70;;;;;;5012951;28;20457;-65
2022/01/06 09:05:52;;;;;;;10.23;4.50;;;3.20;99.70;;;;;;5013421;28;20473;-64
2022/01/06 09:08:18;;;;;;;26.90;9.00;;;3.70;99.70;;;;;;5012488;28;20968;-65
2022/01/06 09:10:45;;;;;;;17.27;7.20;;;4.00;99.70;;;;;;5013325;28;20450;-66
2022/01/06 09:13:12;;;;;;;18.80;7.17;;;3.90;99.70;;;;;;5012510;28;20481;-65
2022/01/06 09:15:39;;;;;;;14.80;6.90;;;3.80;99.70;;;;;;5013086;28;20473;-64
2022/01/06 09:18:07;;;;;;;18.70;6.90;;;3.60;99.70;;;;;;5011992;28;20453;-66
2022/01/06 09:20:34;;;;;;;14.20;5.27;;;3.70;99.70;;;;;;5013310;28;20491;-65
2022/01/06 09:23:01;;;;;;;10.93;4.50;;;3.80;99.70;;;;;;5011197;28;20446;-63
2022/01/06 09:28:02;;;;;;;10.77;4.90;;;4.50;99.70;;;;;;5053170;23;20497;-64
2022/01/06 09:30:28;;;;;;;15.70;4.77;;;4.90;99.70;;;;;;5004403;28;20451;-59
2022/01/06 09:32:55;;;;;;;13.00;4.70;;;5.00;99.70;;;;;;4999462;28;20485;-62
2022/01/06 09:35:23;;;;;;;11.60;5.43;;;5.10;99.70;;;;;;4999427;28;20947;-64
2022/01/06 09:37:50;;;;;;;10.90;5.03;;;5.10;99.70;;;;;;5006184;28;20465;-64
2022/01/06 09:40:17;;;;;;;8.93;4.50;;;5.20;99.70;;;;;;4975731;28;20447;-63
2022/01/06 09:42:44;;;;;;;12.33;4.57;;;5.30;99.70;;;;;;4975297;28;20448;-60
2022/01/06 09:45:12;;;;;;;10.90;4.37;;;5.30;99.70;;;;;;4973974;28;20802;-62
2022/01/06 09:47:40;;;;;;;12.27;5.20;;;5.20;99.70;;;;;;4973018;28;20475;-61
2022/01/06 09:50:09;;;;;;;12.70;4.67;;;5.40;99.70;;;;;;4973846;28;20447;-61
2022/01/06 09:52:37;;;;;;;9.83;4.30;;;5.30;99.70;;;;;;4972821;28;20485;-63
2022/01/06 09:55:05;;;;;;;10.67;4.57;;;5.20;99.70;;;;;;4989770;28;20446;-61
2022/01/06 09:57:32;;;;;;;11.20;5.10;;;5.20;99.70;;;;;;4988851;28;20466;-63
2022/01/06 09:59:59;;;;;;;12.13;5.07;;;5.00;99.70;;;;;;4990034;28;20875;-61
2022/01/06 10:02:33;;;;;;;13.87;4.50;;;5.10;99.70;;;;;;4991286;28;20481;-60
2022/01/06 10:05:01;;;;;;;11.63;3.90;;;5.40;99.70;;;;;;4989633;28;20453;-64
2022/01/06 10:07:34;;;;;;;8.43;3.93;;;5.40;99.70;;;;;;4978554;28;20471;-58
2022/01/06 10:10:07;;;;;;;12.63;4.30;;;5.40;99.70;;;;;;4977020;28;20453;-60
2022/01/06 10:12:35;;;;;;;11.10;4.60;;;5.50;99.70;;;;;;4975893;28;20479;-60
2022/01/06 10:15:02;;;;;;;8.80;3.17;;;5.70;99.70;;;;;;4975815;28;20976;-58
2022/01/06 10:17:31;;;;;;;9.83;3.67;;;5.80;99.70;;;;;;4974617;28;20824;-61
2022/01/06 10:20:08;;;;;;;8.27;3.43;;;5.70;99.70;;;;;;4975519;28;20451;-62
2022/01/06 10:22:44;;;;;;;7.57;3.30;;;5.80;99.70;;;;;;4974836;28;20971;-63
2022/01/06 10:25:12;;;;;;;8.03;3.10;;;5.80;99.70;;;;;;4978198;28;20462;-57
2022/01/06 10:27:39;;;;;;;11.10;3.20;;;5.70;99.70;;;;;;4981034;28;20490;-58
2022/01/06 10:30:07;;;;;;;10.20;3.60;;;5.60;99.70;;;;;;4974339;28;20892;-61
2022/01/06 10:32:34;;;;;;;10.97;3.90;;;5.50;99.70;;;;;;4987159;28;20485;-59
2022/01/06 10:35:02;;;;;;;22.10;6.63;;;5.30;99.70;;;;;;4984647;28;20447;-57
2022/01/06 10:37:31;;;;;;;15.43;3.73;;;5.20;99.70;;;;;;4983785;28;20471;-58
2022/01/06 10:40:00;;;;;;;9.77;3.40;;;5.20;99.70;;;;;;4975018;28;20455;-61
2022/01/06 10:42:30;;;;;;;9.67;3.70;;;5.20;99.70;;;;;;4980638;28;20454;-61
2022/01/06 10:45:02;;;;;;;7.40;3.10;;;5.20;99.70;;;;;;4979551;28;20477;-59
2022/01/06 10:47:30;;;;;;;8.20;3.37;;;5.00;99.70;;;;;;4987915;28;20462;-62
2022/01/06 10:50:09;;;;;;;10.20;3.70;;;5.00;99.70;;;;;;4984193;28;20482;-60
2022/01/06 10:52:37;;;;;;;9.10;3.90;;;4.80;99.70;;;;;;4989583;28;20489;-59
2022/01/06 10:55:10;;;;;;;8.77;3.83;;;4.70;99.70;;;;;;4975412;28;20448;-58
2022/01/06 10:57:49;;;;;;;13.00;4.10;;;4.60;99.70;;;;;;4973373;28;20479;-59
2022/01/06 11:00:17;;;;;;;9.53;3.77;;;4.70;99.70;;;;;;4976856;28;20887;-61
2022/01/06 11:02:44;;;;;;;9.27;4.23;;;4.60;99.70;;;;;;4980387;28;20485;-60
2022/01/06 11:05:10;;;;;;;9.97;3.87;;;4.60;99.70;;;;;;4973383;28;20482;-67
2022/01/06 11:07:37;;;;;;;12.40;3.80;;;4.60;99.70;;;;;;4975077;28;20502;-61
2022/01/06 11:10:13;;;;;;;9.43;4.10;;;4.60;99.70;;;;;;4974250;28;20467;-58
2022/01/06 11:12:41;;;;;;;14.50;4.20;;;4.50;99.70;;;;;;4983146;28;20482;-59
2022/01/06 11:15:09;;;;;;;8.27;3.40;;;4.50;99.70;;;;;;4978373;28;20456;-60
2022/01/06 11:17:36;;;;;;;10.00;3.87;;;4.50;99.70;;;;;;4979546;28;20898;-59
2022/01/06 11:20:04;;;;;;;14.43;3.90;;;4.60;99.70;;;;;;4978615;28;20955;-60
2022/01/06 11:22:31;;;;;;;15.57;4.33;;;4.70;99.70;;;;;;4978282;28;20471;-56
2022/01/06 11:25:00;;;;;;;11.00;3.97;;;4.70;99.70;;;;;;4979456;28;20818;-61
2022/01/06 11:27:32;;;;;;;10.97;3.30;;;4.80;99.70;;;;;;4980287;28;20498;-64
2022/01/06 11:30:11;;;;;;;9.57;3.67;;;4.60;99.70;;;;;;4985169;28;20538;-64
2022/01/06 11:32:38;;;;;;;11.30;3.60;;;4.80;99.70;;;;;;4982644;28;20455;-62
2022/01/06 11:35:11;;;;;;;10.77;3.73;;;5.00;99.70;;;;;;4974757;28;20473;-64
2022/01/06 11:37:43;;;;;;;35.60;13.53;;;5.20;99.70;;;;;;4977912;28;20549;-68
2022/01/06 11:40:11;;;;;;;21.07;8.17;;;5.30;99.70;;;;;;4973227;28;20447;-65
2022/01/06 11:42:37;;;;;;;12.40;4.90;;;5.30;99.70;;;;;;4974900;28;20443;-62
2022/01/06 11:45:06;;;;;;;8.80;4.37;;;5.40;99.70;;;;;;4975027;28;20463;-62
2022/01/06 11:47:37;;;;;;;13.80;3.80;;;5.20;99.70;;;;;;4978891;28;20482;-61
2022/01/06 11:50:13;;;;;;;13.73;4.27;;;5.30;99.70;;;;;;4981277;28;20451;-65
2022/01/06 11:52:51;;;;;;;7.03;3.30;;;5.30;99.70;;;;;;4981226;28;20562;-63
2022/01/06 11:55:19;;;;;;;8.33;4.00;;;5.30;99.70;;;;;;4976859;28;20466;-64
2022/01/06 11:57:45;;;;;;;8.30;3.30;;;5.50;99.70;;;;;;4978785;28;20462;-61
2022/01/06 12:00:20;;;;;;;13.20;3.40;;;5.50;99.70;;;;;;4980786;28;20446;-61
2022/01/06 12:02:59;;;;;;;13.20;3.40;;;5.40;99.70;;;;;;4980590;28;20443;-61
2022/01/06 12:05:26;;;;;;;8.50;3.23;;;5.50;99.70;;;;;;4981623;28;20435;-60
2022/01/06 12:07:55;;;;;;;11.63;3.87;;;5.30;99.70;;;;;;4980769;28;21015;-61
2022/01/06 12:10:22;;;;;;;12.37;4.20;;;5.10;99.70;;;;;;4980235;28;20817;-63
2022/01/06 12:12:50;;;;;;;11.90;5.57;;;5.10;99.70;;;;;;4979232;28;20446;-59
2022/01/06 12:15:20;;;;;;;9.07;3.73;;;5.00;99.70;;;;;;4979910;28;20872;-65
2022/01/06 12:17:48;;;;;;;12.03;4.23;;;5.00;99.70;;;;;;4979246;28;20458;-61
2022/01/06 12:20:27;;;;;;;12.73;3.67;;;5.00;99.70;;;;;;4970619;28;20443;-59
2022/01/06 12:22:55;;;;;;;10.23;3.20;;;4.80;99.70;;;;;;4970393;28;20443;-63
2022/01/06 12:25:24;;;;;;;11.30;3.50;;;4.90;99.70;;;;;;4970550;28;20860;-63
2022/01/06 12:27:53;;;;;;;10.10;2.97;;;4.80;99.70;;;;;;4969723;28;20905;-64
2022/01/06 12:30:21;;;;;;;10.00;3.43;;;4.80;99.70;;;;;;4971641;28;20944;-62
2022/01/06 12:32:59;;;;;;;7.50;2.90;;;4.80;99.70;;;;;;4976942;28;20824;-61
2022/01/06 12:35:40;;;;;;;10.60;5.10;;;4.70;99.70;;;;;;4974009;28;20435;-62
2022/01/06 12:38:06;;;;;;;14.97;5.70;;;4.70;99.70;;;;;;4973825;28;20490;-64
2022/01/06 12:40:35;;;;;;;8.17;3.67;;;5.00;99.70;;;;;;4974574;28;20812;-64
2022/01/06 12:43:17;;;;;;;10.00;3.83;;;4.90;99.70;;;;;;4983550;28;20450;-59
2022/01/06 12:45:44;;;;;;;11.20;3.53;;;5.00;99.70;;;;;;4978719;28;20459;-62
2022/01/06 12:48:12;;;;;;;7.90;3.90;;;5.10;99.70;;;;;;4981888;28;20455;-64
2022/01/06 12:50:49;;;;;;;15.60;4.50;;;5.00;99.70;;;;;;4979277;28;20888;-61
2022/01/06 12:53:27;;;;;;;13.87;6.70;;;4.90;99.70;;;;;;4986360;28;20492;-58
2022/01/06 12:55:54;;;;;;;10.83;6.07;;;4.80;99.70;;;;;;4982883;28;20442;-61
2022/01/06 12:58:25;;;;;;;14.30;7.30;;;4.80;99.70;;;;;;4980063;28;20677;-60
2022/01/06 13:00:55;;;;;;;10.97;6.17;;;4.90;99.70;;;;;;4978368;28;20463;-63
2022/01/06 13:03:34;;;;;;;22.50;15.60;;;4.60;99.70;;;;;;4983301;28;21076;-62
2022/01/06 13:06:07;;;;;;;18.80;11.30;;;4.60;99.70;;;;;;4978773;28;20474;-63
2022/01/06 13:08:45;;;;;;;11.90;6.50;;;4.60;99.70;;;;;;4979405;28;20455;-62
2022/01/06 13:11:12;;;;;;;19.20;9.77;;;4.50;99.70;;;;;;4987358;28;20886;-57
2022/01/06 13:13:50;;;;;;;24.40;13.50;;;4.40;99.70;;;;;;4984085;28;20906;-60
2022/01/06 13:16:20;;;;;;;18.87;11.20;;;4.40;99.70;;;;;;4975006;28;21021;-64
2022/01/06 13:19:02;;;;;;;24.90;14.27;;;4.50;99.70;;;;;;4981558;28;20539;-58
2022/01/06 13:21:33;;;;;;;26.60;12.40;;;4.40;99.70;;;;;;4989054;28;20435;-60
2022/01/06 13:24:16;;;;;;;14.90;7.60;;;4.40;99.70;;;;;;4974043;28;20567;-60
2022/01/06 13:26:52;;;;;;;19.27;6.70;;;4.50;99.70;;;;;;4983523;28;20796;-60
2022/01/06 13:29:30;;;;;;;9.17;3.63;;;4.60;99.70;;;;;;4986028;28;20447;-57
2022/01/06 13:31:58;;;;;;;9.93;4.13;;;4.90;99.70;;;;;;4983041;28;20470;-59
2022/01/06 13:34:25;;;;;;;11.70;4.33;;;4.80;99.70;;;;;;4980964;28;20518;-61
2022/01/06 13:37:03;;;;;;;10.27;4.00;;;4.80;99.70;;;;;;4981481;28;20482;-59
2022/01/06 13:39:36;;;;;;;15.03;4.03;;;4.60;99.70;;;;;;4984593;28;20447;-62
2022/01/06 13:42:03;;;;;;;8.80;3.63;;;4.60;99.70;;;;;;4983786;28;20454;-60
2022/01/06 13:44:30;;;;;;;12.17;3.23;;;4.70;99.70;;;;;;4986878;28;20801;-57
2022/01/06 13:47:08;;;;;;;15.40;3.67;;;4.70;99.70;;;;;;4980762;28;20470;-64
2022/01/06 13:52:24;;;;;;;8.43;3.30;;;4.90;99.70;;;;;;4973744;28;20446;-61
2022/01/06 13:54:52;;;;;;;12.13;3.80;;;4.90;99.70;;;;;;4973683;28;20566;-63
2022/01/06 13:57:18;;;;;;;8.10;3.20;;;4.90;99.70;;;;;;4973758;28;20943;-61
2022/01/06 13:59:46;;;;;;;13.07;3.53;;;4.90;99.70;;;;;;4973346;28;20793;-65
2022/01/06 14:02:14;;;;;;;8.93;3.80;;;4.90;99.70;;;;;;4985517;28;20462;-64
2022/01/06 14:04:44;;;;;;;8.20;2.97;;;5.00;99.70;;;;;;4990858;28;20451;-63
2022/01/06 14:07:11;;;;;;;11.93;4.07;;;5.00;99.70;;;;;;4993106;28;20482;-61
2022/01/06 14:09:40;;;;;;;8.57;3.17;;;5.20;99.70;;;;;;4990132;28;20457;-63
2022/01/06 14:12:07;;;;;;;9.73;2.73;;;5.10;99.70;;;;;;4982675;28;20473;-64
2022/01/06 14:14:34;;;;;;;9.63;3.20;;;5.30;99.70;;;;;;4991651;28;20501;-63
2022/01/06 14:17:01;;;;;;;10.43;2.90;;;5.20;99.70;;;;;;4983253;28;20486;-58
2022/01/06 14:19:28;;;;;;;8.73;2.57;;;5.20;99.70;;;;;;4979920;28;20454;-60
2022/01/06 14:21:54;;;;;;;5.83;2.63;;;5.30;99.70;;;;;;4983658;28;20444;-60
2022/01/06 14:24:21;;;;;;;15.53;3.70;;;5.40;99.70;;;;;;4980408;28;20466;-60
2022/01/06 14:26:49;;;;;;;8.90;2.53;;;5.40;99.70;;;;;;4973127;28;20517;-55
2022/01/06 14:29:16;;;;;;;6.57;2.57;;;5.30;99.70;;;;;;4973097;28;20455;-57
2022/01/06 14:31:43;;;;;;;9.53;2.93;;;5.40;99.70;;;;;;4973365;28;20456;-60
2022/01/06 14:34:09;;;;;;;8.33;2.60;;;5.30;99.70;;;;;;4991392;28;20594;-64
2022/01/06 14:36:36;;;;;;;11.27;2.90;;;5.30;99.70;;;;;;4988112;28;20475;-58
2022/01/06 14:39:03;;;;;;;10.63;3.00;;;5.30;99.70;;;;;;4978855;28;20881;-57
2022/01/06 14:41:29;;;;;;;14.50;3.20;;;5.30;99.70;;;;;;4988750;28;20459;-60
2022/01/06 14:43:59;;;;;;;7.77;3.03;;;5.30;99.70;;;;;;4984302;28;20515;-60
2022/01/06 14:46:25;;;;;;;9.83;3.60;;;5.20;99.70;;;;;;4981012;28;20452;-59
2022/01/06 14:48:52;;;;;;;9.70;2.60;;;5.20;99.70;;;;;;4981358;28;20847;-59
2022/01/06 14:51:20;;;;;;;8.37;2.90;;;5.20;99.70;;;;;;4979835;28;20462;-59
2022/01/06 14:53:47;;;;;;;10.53;4.20;;;5.20;99.70;;;;;;4971592;28;20444;-61
2022/01/06 14:56:14;;;;;;;21.57;8.83;;;5.10;99.70;;;;;;4971562;28;20542;-59
2022/01/06 14:58:41;;;;;;;6.90;3.70;;;5.00;99.70;;;;;;4976101;28;20447;-64
2022/01/06 15:01:11;;;;;;;13.20;6.07;;;5.10;99.70;;;;;;4983576;28;20451;-62
2022/01/06 15:03:38;;;;;;;12.80;4.60;;;4.90;99.70;;;;;;4979668;28;20439;-62
2022/01/06 15:06:05;;;;;;;9.20;3.70;;;5.10;99.70;;;;;;4976225;28;20470;-58
2022/01/06 15:08:32;;;;;;;17.40;6.67;;;5.10;99.70;;;;;;4977653;28;20444;-63
2022/01/06 15:10:59;;;;;;;8.57;3.90;;;5.10;99.70;;;;;;4976925;28;20447;-58
2022/01/06 15:13:26;;;;;;;10.07;3.33;;;5.00;99.70;;;;;;4979252;28;20455;-64
2022/01/06 15:15:54;;;;;;;12.57;4.00;;;5.00;99.70;;;;;;4978173;28;20479;-61
2022/01/06 15:18:22;;;;;;;10.17;3.40;;;4.90;99.70;;;;;;4986119;28;20473;-61
2022/01/06 15:20:49;;;;;;;10.20;3.70;;;4.90;99.70;;;;;;4984279;28;20963;-60
2022/01/06 15:23:16;;;;;;;12.93;4.27;;;4.60;99.70;;;;;;4983472;28;20947;-61
2022/01/06 15:25:43;;;;;;;11.27;4.30;;;4.60;99.70;;;;;;4984431;28;20459;-62
2022/01/06 15:28:10;;;;;;;13.47;4.83;;;4.50;99.70;;;;;;4978925;28;20505;-60
2022/01/06 15:30:37;;;;;;;17.87;6.93;;;4.50;99.70;;;;;;4979814;28;20450;-59
2022/01/06 15:33:04;;;;;;;14.73;5.23;;;4.40;99.70;;;;;;4979478;28;20876;-59
2022/01/06 15:35:32;;;;;;;27.50;8.43;;;4.40;99.70;;;;;;4974439;28;20540;-58
2022/01/06 15:37:59;;;;;;;16.33;6.60;;;4.30;99.70;;;;;;4978047;28;20690;-58
2022/01/06 15:40:26;;;;;;;11.40;4.30;;;4.30;99.70;;;;;;4985729;28;20465;-60
2022/01/06 15:42:53;;;;;;;16.43;4.27;;;4.30;99.70;;;;;;4983019;28;20444;-60
2022/01/06 15:45:20;;;;;;;30.07;7.27;;;4.30;99.70;;;;;;4979009;28;20470;-57
2022/01/06 15:47:49;;;;;;;13.47;6.23;;;4.30;99.70;;;;;;4977582;28;20458;-58
2022/01/06 15:50:16;;;;;;;13.10;6.10;;;4.20;99.70;;;;;;4984159;28;20463;-63
2022/01/06 15:52:45;;;;;;;18.37;5.83;;;4.10;99.70;;;;;;4977645;28;20451;-61
2022/01/06 15:55:13;;;;;;;14.97;5.83;;;4.00;99.70;;;;;;4974191;28;20857;-59
2022/01/06 15:57:39;;;;;;;13.83;5.40;;;4.00;99.70;;;;;;4971396;28;20848;-62
2022/01/06 16:00:27;;;;;;;13.70;5.03;;;3.80;99.70;;;;;;4977500;28;20970;-62
2022/01/06 16:05:38;;;;;;;14.07;6.10;;;3.70;99.70;;;;;;4983317;28;20422;-64
2022/01/06 16:08:13;;;;;;;12.63;6.20;;;3.50;99.70;;;;;;4976333;28;20855;-65
2022/01/06 16:10:40;;;;;;;19.97;6.77;;;3.30;99.70;;;;;;5028185;23;20872;-66
2022/01/06 16:13:07;;;;;;;17.70;7.70;;;3.20;99.70;;;;;;5028565;28;20450;-67
2022/01/06 16:15:34;;;;;;;20.30;8.10;;;3.00;99.70;;;;;;5028407;28;20932;-69
2022/01/06 16:18:01;;;;;;;22.77;8.80;;;2.80;99.70;;;;;;5023270;28;20465;-69
2022/01/06 16:20:28;;;;;;;17.20;8.00;;;2.80;99.70;;;;;;5023171;28;20471;-68
2022/01/06 16:22:55;;;;;;;21.37;8.33;;;2.70;99.70;;;;;;5012545;28;20472;-69
2022/01/06 16:25:24;;;;;;;29.77;9.43;;;2.70;99.70;;;;;;5007056;28;20450;-68
2022/01/06 16:27:51;;;;;;;32.83;8.30;;;2.60;99.70;;;;;;5006203;28;20493;-69
2022/01/06 16:30:31;;;;;;;22.47;9.30;;;2.60;99.70;;;;;;5005758;28;20480;-69
2022/01/06 16:32:57;;;;;;;23.70;9.07;;;2.60;99.70;;;;;;5012808;28;20480;-68
2022/01/06 16:35:24;;;;;;;20.67;8.73;;;2.50;99.70;;;;;;5006595;28;20485;-69
2022/01/06 16:37:51;;;;;;;21.40;9.57;;;2.50;99.70;;;;;;5008838;28;20483;-69
2022/01/06 16:40:18;;;;;;;33.20;14.27;;;2.60;99.70;;;;;;5012550;28;20469;-69
2022/01/06 16:42:46;;;;;;;26.63;12.37;;;2.60;99.70;;;;;;5005278;28;20445;-69
2022/01/06 16:45:13;;;;;;;28.50;11.50;;;2.70;99.70;;;;;;4998700;28;20461;-69
2022/01/06 16:47:39;;;;;;;25.17;9.90;;;2.60;99.70;;;;;;5009155;28;20445;-69
2022/01/06 16:50:08;;;;;;;21.40;9.40;;;2.50;99.70;;;;;;4996965;28;20477;-69
2022/01/06 16:52:34;;;;;;;21.60;10.17;;;2.30;99.70;;;;;;5001665;28;20511;-69
2022/01/06 16:55:01;;;;;;;52.00;20.73;;;2.40;99.70;;;;;;5012060;28;20493;-69
2022/01/06 16:57:28;;;;;;;52.40;20.90;;;2.40;99.70;;;;;;5007352;28;20445;-68
2022/01/06 16:59:56;;;;;;;41.63;18.13;;;2.40;99.70;;;;;;5002320;28;20470;-69
2022/01/06 17:02:23;;;;;;;29.90;13.63;;;2.30;99.70;;;;;;5010719;28;20453;-69
2022/01/06 17:04:50;;;;;;;26.23;10.37;;;2.20;99.70;;;;;;5011266;28;20874;-68
2022/01/06 17:07:17;;;;;;;32.60;14.10;;;2.20;99.70;;;;;;5008558;28;20481;-69
2022/01/06 17:09:44;;;;;;;33.60;11.83;;;2.30;99.70;;;;;;5006603;28;20465;-69
2022/01/06 17:12:12;;;;;;;26.73;10.97;;;2.40;99.70;;;;;;5010366;28;20454;-69
2022/01/06 17:14:39;;;;;;;21.33;9.90;;;2.70;99.70;;;;;;5004238;28;20720;-69
2022/01/06 17:17:07;;;;;;;46.13;15.60;;;2.60;99.70;;;;;;4997106;28;20546;-69
2022/01/06 17:19:34;;;;;;;43.20;15.60;;;2.50;99.70;;;;;;4997599;28;20850;-69
2022/01/06 17:22:01;;;;;;;61.17;19.83;;;2.60;99.70;;;;;;5010119;28;20534;-69
2022/01/06 17:24:28;;;;;;;68.20;21.37;;;2.70;99.70;;;;;;5004005;28;20454;-68
2022/01/06 17:26:55;;;;;;;79.80;24.17;;;2.60;99.70;;;;;;4998708;28;20477;-69
2022/01/06 17:29:22;;;;;;;61.13;20.80;;;2.50;99.70;;;;;;5007996;28;20465;-69
2022/01/06 17:31:49;;;;;;;56.23;20.17;;;2.50;99.70;;;;;;5008006;28;20509;-70
2022/01/06 17:34:17;;;;;;;45.73;14.97;;;2.40;99.70;;;;;;5008701;28;20454;-69
2022/01/06 17:36:44;;;;;;;27.20;10.63;;;2.40;99.70;;;;;;5006157;28;20500;-69
2022/01/06 17:39:11;;;;;;;21.03;8.60;;;2.40;99.70;;;;;;5006910;28;20457;-69
2022/01/06 17:41:37;;;;;;;23.03;8.63;;;2.30;99.70;;;;;;5009352;28;20469;-69
2022/01/06 17:44:05;;;;;;;25.03;10.33;;;2.20;99.70;;;;;;5002159;28;20950;-69
2022/01/06 17:46:32;;;;;;;25.43;9.80;;;2.30;99.70;;;;;;4995103;28;21018;-69
2022/01/06 17:48:59;;;;;;;23.67;9.60;;;2.20;99.70;;;;;;5008499;28;20545;-69
2022/01/06 17:51:27;;;;;;;24.07;9.80;;;2.10;99.70;;;;;;5011209;28;20469;-69
2022/01/06 17:53:54;;;;;;;28.07;12.00;;;2.00;99.70;;;;;;5009827;28;20450;-69
2022/01/06 17:56:23;;;;;;;36.80;14.07;;;1.90;99.70;;;;;;5007300;28;20572;-69
2022/01/06 17:58:49;;;;;;;35.23;15.53;;;1.80;99.70;;;;;;4995580;28;20445;-69
2022/01/06 18:01:17;;;;;;;32.83;13.70;;;1.70;99.70;;;;;;4996360;28;20485;-69